Airfield :
LOGIN :

Register | Disclaimer

   EN    FR    IT 

 










Legend :    VFR   Marginal VFR   IFR   Intensive IFR   Very Intensive IFR
Visi :
Ceiling :
>= 8 km
>= 3000ft
5 to 8 km
1000 to 3000 ft
1500m to 5 km
500 to 1000 ft
800 to 1500m
200 to 500 ft
< 800m
< 200 ft
Symbols :   Thunderstorms  Fog  Heavy snow  Heavy precipitations  Wind > 20 kt
SIGMETs :     Misc.  Thunderstorms  Icing  Turbulence  Mountain Waves  Volcanic Ashes







- Airport Elevation : 1234 ft
- IATA code : LUX


ELLX - Luxembourg Findel

CURRENT METAR :
  • 230620Z 25008KT 6000 NSC 03/03 Q1029 NOSIG

EXPIRED METARs :
  • 230550Z 30005KT 6000 NSC 04/03 Q1030 NOSIG
  • 230520Z 27005KT 6000 NSC 03/03 Q1030 NOSIG
  • 230450Z 29006KT 5000 BR NSC 03/02 Q1030 NOSIG
  • 230420Z 28007KT 4000 BR NSC 03/02 Q1030 NOSIG
  • 230350Z 26007KT 4000 BR FEW001 03/02 Q1030 NOSIG

TAF TAF ELLX
Valid from the 23 at 06:00 until the 24 at 12:00 UTC


230500Z 2306/2412 27009KT 8000 FEW020
TEMPO 2306/2307 2000 BR
TEMPO 2311/2317 24015G25KT
BECMG 2322/2401 BKN010
TEMPO 2402/2410 1500 DZ OVC002
ATIS : +352 4798 27300
Met : +352 4798 27010 / 27050
No reported NOTAMs for that airfield.



MET'MAP, your aeronautical weather chart ! - Copyright ORBIFLY December 2007 - Disclaimer

ORBIFLY MET'MAP TEAM :

Programming & Development : Alexandra Zaïnal
Concept & Development : Baudouin d'Aumeries
Co-Development & Prog : Marc-Olivier Méhu
Technical & hardware support : Manuel Goepfert

Contact : metmap@orbifly.com




SOURCES & CREDITS :

   NOAA